createdAt,value
2019-01-12T00:00:52.436Z,84.48
2019-01-12T00:02:58.918Z,84.07
2019-01-12T00:05:06.954Z,85.69
2019-01-12T00:07:15.398Z,84.53
2019-01-12T00:09:21.994Z,85.17
2019-01-12T00:11:28.411Z,84.24
2019-01-12T00:13:34.969Z,83.63
2019-01-12T00:15:42.015Z,83.42
2019-01-12T00:17:48.616Z,83.80
2019-01-12T00:19:55.218Z,84.53
2019-01-12T00:22:02.451Z,84.40
2019-01-12T00:24:09.044Z,83.93
2019-01-12T00:26:15.627Z,83.85
2019-01-12T00:28:21.945Z,83.94
2019-01-12T00:30:28.514Z,84.21
2019-01-12T00:32:35.070Z,86.33
2019-01-12T00:34:41.437Z,85.16
2019-01-12T00:36:48.189Z,84.65
2019-01-12T00:38:55.028Z,85.26
2019-01-12T00:41:01.754Z,86.53
2019-01-12T00:43:08.508Z,87.78
2019-01-12T00:45:15.023Z,88.24
2019-01-12T00:47:21.700Z,88.63
2019-01-12T00:49:28.275Z,88.47
2019-01-12T00:51:35.594Z,89.59
2019-01-12T00:53:42.876Z,89.71
2019-01-12T00:55:49.516Z,90.17
2019-01-12T00:57:56.108Z,90.72
2019-01-12T01:00:02.842Z,89.77
2019-01-12T01:02:09.966Z,90.60
2019-01-12T01:04:16.544Z,88.94
2019-01-12T01:06:23.353Z,86.05
2019-01-12T01:08:30.024Z,85.90
2019-01-12T01:10:36.717Z,85.13
2019-01-12T01:12:45.443Z,85.37
2019-01-12T01:14:52.094Z,85.77
2019-01-12T01:16:58.966Z,84.39
2019-01-12T01:19:06.121Z,84.05
2019-01-12T01:21:12.968Z,83.98
2019-01-12T01:23:19.269Z,83.59
2019-01-12T01:25:27.607Z,83.17
2019-01-12T01:27:34.978Z,83.75
2019-01-12T01:29:41.453Z,84.28
2019-01-12T01:31:48.399Z,85.15
2019-01-12T01:33:55.065Z,84.59
2019-01-12T01:36:01.859Z,84.46
2019-01-12T01:38:08.387Z,84.89
2019-01-12T01:40:19.490Z,85.18
2019-01-12T01:42:25.956Z,85.11
2019-01-12T01:44:34.304Z,84.93
2019-01-12T01:46:41.088Z,85.58
2019-01-12T01:48:47.666Z,85.72
2019-01-12T01:50:54.268Z,85.88
2019-01-12T01:53:00.945Z,87.80
2019-01-12T01:55:07.496Z,88.39
2019-01-12T01:57:14.181Z,89.19
2019-01-12T01:59:20.832Z,89.23
2019-01-12T02:01:27.613Z,89.09
2019-01-12T02:03:34.181Z,88.99
2019-01-12T02:05:40.819Z,89.17
2019-01-12T02:07:47.668Z,89.60
2019-01-12T02:09:54.214Z,90.23
2019-01-12T02:12:00.711Z,90.10
2019-01-12T02:14:07.038Z,89.90
2019-01-12T02:16:13.938Z,90.15
2019-01-12T02:18:20.245Z,89.70
2019-01-12T02:20:26.833Z,90.00
2019-01-12T02:22:33.747Z,90.76
2019-01-12T02:24:40.422Z,91.02
2019-01-12T02:26:46.808Z,90.92
2019-01-12T02:28:54.620Z,91.11
2019-01-12T02:31:01.259Z,90.83
2019-01-12T02:33:07.791Z,90.78
2019-01-12T02:35:14.308Z,90.64
2019-01-12T02:37:20.955Z,90.69
2019-01-12T02:39:27.865Z,90.63
2019-01-12T02:41:35.550Z,90.43
2019-01-12T02:43:42.039Z,90.38
2019-01-12T02:45:48.737Z,91.01
2019-01-12T02:47:55.453Z,90.87
2019-01-12T02:50:02.256Z,91.59
2019-01-12T02:52:09.011Z,91.58
2019-01-12T02:54:15.763Z,91.52
2019-01-12T02:56:23.470Z,91.32
2019-01-12T02:58:30.249Z,91.29
2019-01-12T03:00:36.851Z,91.34
2019-01-12T03:02:43.278Z,91.19
2019-01-12T03:04:49.778Z,91.03
2019-01-12T03:06:56.538Z,91.29
2019-01-12T03:09:04.884Z,91.09
2019-01-12T03:11:11.762Z,91.07
2019-01-12T03:13:18.064Z,91.20
2019-01-12T03:15:25.165Z,91.19
2019-01-12T03:17:31.931Z,91.21
2019-01-12T03:19:38.438Z,91.31
2019-01-12T03:21:45.366Z,91.39
2019-01-12T03:23:51.804Z,91.52
2019-01-12T03:25:58.728Z,91.47
2019-01-12T03:28:06.749Z,91.67
2019-01-12T03:30:15.753Z,91.50
2019-01-12T03:32:22.348Z,90.90
2019-01-12T03:34:28.884Z,91.51
2019-01-12T03:36:36.478Z,91.46
2019-01-12T03:38:42.729Z,91.51
2019-01-12T03:40:49.102Z,91.79
2019-01-12T03:42:56.987Z,91.90
2019-01-12T03:45:03.447Z,92.22
2019-01-12T03:47:10.017Z,92.15
2019-01-12T03:49:16.758Z,92.19
2019-01-12T03:51:23.264Z,92.20
2019-01-12T03:53:29.916Z,92.35
2019-01-12T03:55:36.480Z,92.32
2019-01-12T03:57:43.061Z,92.32
2019-01-12T03:59:49.751Z,92.35
2019-01-12T04:01:58.027Z,92.68
2019-01-12T04:04:04.477Z,92.73
2019-01-12T04:06:11.128Z,92.71
2019-01-12T04:08:17.455Z,92.90
2019-01-12T04:10:24.138Z,92.99
2019-01-12T04:12:30.875Z,93.13
2019-01-12T04:14:37.329Z,93.25
2019-01-12T04:16:44.033Z,93.31
2019-01-12T04:18:50.632Z,93.32
2019-01-12T04:20:57.615Z,93.30
2019-01-12T04:23:04.094Z,93.26
2019-01-12T04:25:12.152Z,93.16
2019-01-12T04:27:18.974Z,93.14
2019-01-12T04:29:25.674Z,92.97
2019-01-12T04:31:32.077Z,92.84
2019-01-12T04:33:38.788Z,92.85
2019-01-12T04:35:45.442Z,93.04
2019-01-12T04:37:53.105Z,93.16
2019-01-12T04:39:59.592Z,93.12
2019-01-12T04:42:06.370Z,93.19
2019-01-12T04:44:13.026Z,93.20
2019-01-12T04:46:19.749Z,93.31
2019-01-12T04:48:26.150Z,93.36
2019-01-12T04:50:32.845Z,93.27
2019-01-12T04:52:39.444Z,93.22
2019-01-12T04:54:46.623Z,93.35
2019-01-12T04:56:53.281Z,93.33
2019-01-12T04:59:00.326Z,93.21
2019-01-12T05:01:06.773Z,93.31
2019-01-12T05:03:13.664Z,93.44
2019-01-12T05:05:20.657Z,93.57
2019-01-12T05:07:27.553Z,93.59
2019-01-12T05:09:34.461Z,93.51
2019-01-12T05:11:41.448Z,93.64
2019-01-12T05:13:47.992Z,93.65
2019-01-12T05:15:55.027Z,93.65
2019-01-12T05:18:01.555Z,93.74
2019-01-12T05:20:10.637Z,93.84
2019-01-12T05:22:17.269Z,93.85
2019-01-12T05:24:23.649Z,93.88
2019-01-12T05:26:30.135Z,93.75
2019-01-12T05:28:36.443Z,93.75
2019-01-12T05:30:43.092Z,93.62
2019-01-12T05:32:49.695Z,93.67
2019-01-12T05:34:56.031Z,93.62
2019-01-12T05:37:03.448Z,93.58
2019-01-12T05:39:10.059Z,93.48
2019-01-12T05:41:16.453Z,93.44
2019-01-12T05:43:23.015Z,93.41
2019-01-12T05:45:29.620Z,93.50
2019-01-12T05:47:40.932Z,93.47
2019-01-12T05:49:47.722Z,93.56
2019-01-12T05:51:54.621Z,93.41
2019-01-12T05:54:00.871Z,93.44
2019-01-12T05:56:07.258Z,93.39
2019-01-12T05:58:13.663Z,93.37
2019-01-12T06:00:23.861Z,93.31
2019-01-12T06:02:30.311Z,93.22
2019-01-12T06:04:36.934Z,93.37
2019-01-12T06:06:43.406Z,93.29
2019-01-12T06:08:49.922Z,93.26
2019-01-12T06:10:56.579Z,93.28
2019-01-12T06:13:03.085Z,93.36
2019-01-12T06:15:10.169Z,93.42
2019-01-12T06:17:16.537Z,93.65
2019-01-12T06:19:23.127Z,93.68
2019-01-12T06:21:29.928Z,93.69
2019-01-12T06:23:36.615Z,93.75
2019-01-12T06:25:43.205Z,93.80
2019-01-12T06:27:50.187Z,93.81
2019-01-12T06:29:56.598Z,93.70
2019-01-12T06:32:03.906Z,93.54
2019-01-12T06:34:10.285Z,93.64
2019-01-12T06:36:16.513Z,93.72
2019-01-12T06:38:23.225Z,93.54
2019-01-12T06:40:29.872Z,93.48
2019-01-12T06:42:36.836Z,93.32
2019-01-12T06:44:43.075Z,93.33
2019-01-12T06:46:51.981Z,93.35
2019-01-12T06:48:58.973Z,93.57
2019-01-12T06:51:06.026Z,93.57
2019-01-12T06:53:12.689Z,93.62
2019-01-12T06:55:18.932Z,93.53
2019-01-12T06:57:25.366Z,93.50
2019-01-12T06:59:31.700Z,93.69
2019-01-12T07:01:38.726Z,93.75
2019-01-12T07:03:46.935Z,93.83
2019-01-12T07:05:54.295Z,93.91
2019-01-12T07:08:01.021Z,93.82
2019-01-12T07:10:08.786Z,93.72
2019-01-12T07:12:15.242Z,93.63
2019-01-12T07:14:22.006Z,93.71
2019-01-12T07:16:29.061Z,93.79
2019-01-12T07:18:35.488Z,93.83
2019-01-12T07:20:42.075Z,93.80
2019-01-12T07:22:48.516Z,93.75
2019-01-12T07:24:54.856Z,93.73
2019-01-12T07:27:01.177Z,93.55
2019-01-12T07:29:07.618Z,93.38
2019-01-12T07:31:14.484Z,93.08
2019-01-12T07:33:21.062Z,93.33
2019-01-12T07:35:27.390Z,93.37
2019-01-12T07:37:34.354Z,93.36
2019-01-12T07:39:40.849Z,93.29
2019-01-12T07:41:47.890Z,93.39
2019-01-12T07:43:54.890Z,93.42
2019-01-12T07:46:01.114Z,93.44
2019-01-12T07:48:07.887Z,93.44
2019-01-12T07:50:15.200Z,93.31
2019-01-12T07:52:21.455Z,93.02
2019-01-12T07:54:28.032Z,93.19
2019-01-12T07:56:35.371Z,93.32
2019-01-12T07:58:42.072Z,93.09
2019-01-12T08:00:49.236Z,93.01
2019-01-12T08:02:55.934Z,92.96
2019-01-12T08:05:02.649Z,92.98
2019-01-12T08:07:09.251Z,92.78
2019-01-12T08:09:16.276Z,92.91
2019-01-12T08:11:23.434Z,92.74
2019-01-12T08:13:30.785Z,92.75
2019-01-12T08:15:37.373Z,92.90
2019-01-12T08:17:43.774Z,92.56
2019-01-12T08:19:50.356Z,92.77
2019-01-12T08:21:57.697Z,92.71
2019-01-12T08:24:04.287Z,92.55
2019-01-12T08:26:10.892Z,92.02
2019-01-12T08:28:17.665Z,91.68
2019-01-12T08:30:24.157Z,91.00
2019-01-12T08:32:30.650Z,91.48
2019-01-12T08:34:37.363Z,91.44
2019-01-12T08:36:44.193Z,91.57
2019-01-12T08:38:50.849Z,91.34
2019-01-12T08:40:57.792Z,91.42
2019-01-12T08:43:04.640Z,90.96
2019-01-12T08:45:12.259Z,91.24
2019-01-12T08:47:19.085Z,91.11
2019-01-12T08:49:25.693Z,90.56
2019-01-12T08:51:32.697Z,89.71
2019-01-12T08:53:39.846Z,88.94
2019-01-12T08:55:46.602Z,87.31
2019-01-12T08:57:53.444Z,86.88
2019-01-12T09:00:00.377Z,87.22
2019-01-12T09:02:07.496Z,86.11
2019-01-12T09:04:14.447Z,86.63
2019-01-12T09:06:21.168Z,87.82
2019-01-12T09:08:27.873Z,86.17
2019-01-12T09:10:34.342Z,85.26
2019-01-12T09:12:41.898Z,84.81
2019-01-12T09:14:48.403Z,84.40
2019-01-12T09:16:55.502Z,83.23
2019-01-12T09:19:02.359Z,83.12
2019-01-12T09:21:09.049Z,83.04
2019-01-12T09:23:16.035Z,82.89
2019-01-12T09:25:22.778Z,83.01
2019-01-12T09:27:31.094Z,83.21
2019-01-12T09:29:38.054Z,83.12
2019-01-12T09:31:45.299Z,83.71
2019-01-12T09:33:51.891Z,83.96
2019-01-12T09:35:58.661Z,83.58
2019-01-12T09:38:05.628Z,83.77
2019-01-12T09:40:14.875Z,83.10
2019-01-12T09:42:21.647Z,82.79
2019-01-12T09:44:28.528Z,83.47
2019-01-12T09:46:35.891Z,82.61
2019-01-12T09:48:42.517Z,83.15
2019-01-12T09:50:49.484Z,83.14
2019-01-12T09:52:56.297Z,83.78
2019-01-12T09:55:03.769Z,84.45
2019-01-12T09:57:10.317Z,84.18
2019-01-12T09:59:17.013Z,84.04
2019-01-12T10:01:24.476Z,85.54
2019-01-12T10:03:32.123Z,85.53
2019-01-12T10:05:38.890Z,85.18
2019-01-12T10:07:45.926Z,85.11
2019-01-12T10:09:52.878Z,84.88
2019-01-12T10:11:59.589Z,85.51
2019-01-12T10:14:07.091Z,85.63
2019-01-12T10:16:14.083Z,84.92
2019-01-12T10:18:20.700Z,83.78
2019-01-12T10:20:27.365Z,84.21
2019-01-12T10:22:34.311Z,84.37
2019-01-12T10:24:41.155Z,84.32
2019-01-12T10:26:48.724Z,84.17
2019-01-12T10:28:55.983Z,84.62
2019-01-12T10:31:02.719Z,84.73
2019-01-12T10:33:09.392Z,85.54
2019-01-12T10:35:16.077Z,85.21
2019-01-12T10:37:22.854Z,85.03
2019-01-12T10:39:29.782Z,86.34
2019-01-12T10:41:37.194Z,85.48
2019-01-12T10:43:44.070Z,84.71
2019-01-12T10:45:51.081Z,84.29
2019-01-12T10:47:57.326Z,85.84
2019-01-12T10:50:05.302Z,85.57
2019-01-12T10:52:12.373Z,84.02
2019-01-12T10:54:21.618Z,83.86
2019-01-12T10:56:30.621Z,83.45
2019-01-12T10:58:38.063Z,83.66
2019-01-12T11:00:45.080Z,83.86
2019-01-12T11:02:52.742Z,84.81
2019-01-12T11:04:59.001Z,85.33
2019-01-12T11:07:06.330Z,86.70
2019-01-12T11:09:13.244Z,85.80
2019-01-12T11:11:20.219Z,84.96
2019-01-12T11:13:27.503Z,84.35
2019-01-12T11:15:34.855Z,83.67
2019-01-12T11:17:41.786Z,84.11
2019-01-12T11:19:48.980Z,82.84
2019-01-12T11:21:56.549Z,82.05
2019-01-12T11:24:03.529Z,81.88
2019-01-12T11:26:10.852Z,82.18
2019-01-12T11:28:17.542Z,81.47
2019-01-12T11:30:25.128Z,81.23
2019-01-12T11:32:31.918Z,80.43
2019-01-12T11:34:38.756Z,80.62
2019-01-12T11:36:45.749Z,81.73
2019-01-12T11:38:53.242Z,81.05
2019-01-12T11:41:00.071Z,80.09
2019-01-12T11:43:06.748Z,79.95
2019-01-12T11:45:13.782Z,80.19
2019-01-12T11:47:21.536Z,80.29
2019-01-12T11:49:28.265Z,79.89
2019-01-12T11:51:35.540Z,80.15
2019-01-12T11:53:42.166Z,80.23
2019-01-12T11:55:48.766Z,80.39
2019-01-12T11:57:55.496Z,80.34
2019-01-12T12:00:02.473Z,80.08
2019-01-12T12:02:09.799Z,79.81
2019-01-12T12:04:16.661Z,79.07
2019-01-12T12:06:24.444Z,78.94
2019-01-12T12:08:32.042Z,78.32
2019-01-12T12:10:39.370Z,78.19
2019-01-12T12:12:45.857Z,78.41
2019-01-12T12:14:52.372Z,78.92
2019-01-12T12:16:59.362Z,78.51
2019-01-12T12:19:05.952Z,78.18
2019-01-12T12:21:12.743Z,78.46
2019-01-12T12:23:20.025Z,77.87
2019-01-12T12:25:26.479Z,78.29
2019-01-12T12:27:33.200Z,79.16
2019-01-12T12:29:40.624Z,79.57
2019-01-12T12:31:48.827Z,79.96
2019-01-12T12:33:57.986Z,80.32
2019-01-12T12:36:04.672Z,79.62
2019-01-12T12:38:12.136Z,80.80
2019-01-12T12:40:21.117Z,79.62
2019-01-12T12:42:27.738Z,79.40
2019-01-12T12:44:34.484Z,79.37
2019-01-12T12:46:41.530Z,79.42
2019-01-12T12:48:48.254Z,80.26
2019-01-12T12:50:55.455Z,79.98
2019-01-12T12:53:02.367Z,80.20
2019-01-12T12:55:10.043Z,79.97
2019-01-12T12:57:16.765Z,80.13
2019-01-12T12:59:24.336Z,80.66
2019-01-12T13:01:31.111Z,80.65
2019-01-12T13:03:38.366Z,81.31
2019-01-12T13:05:45.053Z,81.52
2019-01-12T13:07:53.963Z,81.43
2019-01-12T13:10:02.452Z,82.12
2019-01-12T13:12:09.433Z,81.91
2019-01-12T13:14:17.377Z,81.90
2019-01-12T13:16:25.524Z,83.00
2019-01-12T13:18:32.477Z,83.16
2019-01-12T13:20:40.351Z,83.19
2019-01-12T13:22:47.615Z,83.63
2019-01-12T13:24:54.282Z,84.11
2019-01-12T13:27:01.443Z,84.08
2019-01-12T13:29:08.588Z,83.52
2019-01-12T13:31:15.622Z,83.47
2019-01-12T13:33:22.229Z,83.26
2019-01-12T13:35:28.597Z,83.25
2019-01-12T13:37:35.222Z,83.05
2019-01-12T13:39:41.875Z,83.82
2019-01-12T13:41:50.937Z,83.45
2019-01-12T13:43:57.493Z,83.04
2019-01-12T13:46:04.040Z,82.88
2019-01-12T13:48:10.567Z,83.23
2019-01-12T13:50:19.251Z,83.74
2019-01-12T13:52:25.877Z,83.92
2019-01-12T13:54:32.950Z,83.25
2019-01-12T13:56:39.890Z,83.04
2019-01-12T13:58:46.400Z,83.59
2019-01-12T14:00:53.333Z,83.29
2019-01-12T14:03:01.601Z,83.57
2019-01-12T14:05:09.024Z,83.53
2019-01-12T14:07:16.179Z,84.23
2019-01-12T14:09:23.656Z,84.46
2019-01-12T14:11:31.801Z,83.97
2019-01-12T14:13:40.277Z,84.04
2019-01-12T14:15:47.217Z,84.21
2019-01-12T14:17:54.487Z,84.23
2019-01-12T14:20:00.923Z,84.07
2019-01-12T14:22:08.874Z,83.59
2019-01-12T14:24:16.743Z,83.99
2019-01-12T14:26:23.744Z,84.34
2019-01-12T14:28:31.270Z,84.83
2019-01-12T14:30:38.022Z,85.04
2019-01-12T14:32:44.763Z,84.57
2019-01-12T14:34:51.913Z,84.55
2019-01-12T14:36:59.063Z,84.11
2019-01-12T14:39:10.055Z,84.27
2019-01-12T14:41:18.881Z,84.73
2019-01-12T14:43:28.931Z,85.62
2019-01-12T14:45:38.119Z,85.78
2019-01-12T14:47:44.921Z,85.92
2019-01-12T14:49:52.335Z,85.24
2019-01-12T14:51:59.644Z,85.36
2019-01-12T14:54:06.730Z,84.77
2019-01-12T14:56:13.768Z,85.25
2019-01-12T14:58:23.799Z,85.45
2019-01-12T15:00:32.101Z,85.38
2019-01-12T15:02:39.655Z,85.31
2019-01-12T15:04:47.180Z,85.35
2019-01-12T15:06:54.001Z,85.01
2019-01-12T15:09:00.907Z,85.44
2019-01-12T15:11:08.692Z,84.97
2019-01-12T15:13:16.470Z,84.57
2019-01-12T15:15:25.025Z,84.83
2019-01-12T15:17:32.128Z,84.90
2019-01-12T15:19:38.961Z,84.44
2019-01-12T15:21:47.096Z,84.70
2019-01-12T15:23:53.712Z,84.75
2019-01-12T15:26:00.501Z,85.97
2019-01-12T15:28:09.387Z,85.64
2019-01-12T15:30:23.776Z,85.51
2019-01-12T15:32:32.324Z,85.68
2019-01-12T15:34:39.465Z,85.93
2019-01-12T15:36:47.507Z,85.82
2019-01-12T15:38:56.441Z,85.72
2019-01-12T15:41:04.270Z,85.68
2019-01-12T15:43:12.403Z,85.74
2019-01-12T15:45:22.362Z,85.87
2019-01-12T15:47:30.007Z,85.93
2019-01-12T15:49:37.413Z,86.14
2019-01-12T15:51:46.001Z,86.30
2019-01-12T15:53:53.249Z,86.23
2019-01-12T15:55:59.811Z,86.26
2019-01-12T15:58:06.702Z,86.29
2019-01-12T16:00:19.568Z,86.45
2019-01-12T16:02:26.485Z,86.24
2019-01-12T16:04:33.402Z,86.40
2019-01-12T16:06:40.954Z,86.33
2019-01-12T16:08:47.974Z,86.19
2019-01-12T16:10:55.345Z,86.46
2019-01-12T16:13:03.155Z,86.43
2019-01-12T16:15:15.931Z,86.34
2019-01-12T16:17:23.820Z,86.52
2019-01-12T16:19:30.780Z,86.42
2019-01-12T16:21:37.887Z,86.15
2019-01-12T16:23:45.336Z,86.07
2019-01-12T16:25:53.122Z,86.03
2019-01-12T16:28:00.272Z,86.16
2019-01-12T16:30:09.170Z,86.00
2019-01-12T16:32:16.538Z,85.56
2019-01-12T16:34:23.771Z,85.72
2019-01-12T16:36:32.804Z,85.71
2019-01-12T16:38:39.987Z,85.96
2019-01-12T16:40:50.185Z,86.18
2019-01-12T16:42:56.987Z,85.87
2019-01-12T16:45:03.410Z,85.65
2019-01-12T16:47:13.084Z,85.20
2019-01-12T16:49:20.171Z,85.71
2019-01-12T16:51:27.352Z,85.74
2019-01-12T16:53:34.973Z,86.03
2019-01-12T16:55:42.280Z,86.25
2019-01-12T16:57:48.853Z,86.44
2019-01-12T16:59:57.788Z,86.04
2019-01-12T17:02:05.675Z,86.15
2019-01-12T17:04:12.614Z,85.91
2019-01-12T17:06:19.816Z,86.16
2019-01-12T17:08:26.743Z,85.75
2019-01-12T17:10:34.061Z,85.85
2019-01-12T17:12:41.459Z,86.16
2019-01-12T17:14:48.252Z,86.33
2019-01-12T17:16:54.901Z,86.80
2019-01-12T17:19:03.019Z,86.87
2019-01-12T17:21:09.726Z,86.18
2019-01-12T17:23:16.669Z,85.84
2019-01-12T17:25:23.410Z,85.85
2019-01-12T17:27:30.157Z,85.70
2019-01-12T17:29:37.279Z,86.08
2019-01-12T17:31:44.514Z,86.29
2019-01-12T17:33:51.157Z,86.35
2019-01-12T17:35:58.161Z,86.22
2019-01-12T17:38:05.552Z,86.26
2019-01-12T17:40:13.870Z,85.97
2019-01-12T17:42:20.655Z,86.49
2019-01-12T17:44:27.753Z,86.77
2019-01-12T17:46:34.713Z,86.22
2019-01-12T17:48:41.310Z,86.37
2019-01-12T17:50:47.938Z,86.37
2019-01-12T17:52:55.196Z,86.33
2019-01-12T17:55:02.232Z,86.56
2019-01-12T17:57:09.151Z,86.66
2019-01-12T17:59:16.206Z,86.56
2019-01-12T18:01:23.566Z,87.26
2019-01-12T18:03:30.518Z,87.38
2019-01-12T18:05:37.945Z,86.92
2019-01-12T18:07:46.268Z,86.77
2019-01-12T18:09:53.416Z,87.31
2019-01-12T18:12:00.888Z,87.38
2019-01-12T18:14:08.600Z,87.44
2019-01-12T18:16:15.472Z,87.26
2019-01-12T18:18:22.348Z,87.11
2019-01-12T18:20:29.395Z,87.08
2019-01-12T18:22:37.118Z,87.14
2019-01-12T18:24:44.468Z,87.50
2019-01-12T18:26:51.189Z,87.28
2019-01-12T18:28:58.277Z,87.48
2019-01-12T18:31:05.248Z,87.73
2019-01-12T18:33:12.285Z,87.40
2019-01-12T18:35:18.908Z,87.57
2019-01-12T18:37:25.971Z,87.63
2019-01-12T18:39:33.503Z,87.83
2019-01-12T18:41:40.861Z,87.73
2019-01-12T18:43:47.182Z,87.67
2019-01-12T18:45:53.736Z,87.65
2019-01-12T18:48:00.389Z,87.73
2019-01-12T18:50:09.559Z,87.85
2019-01-12T18:52:16.035Z,87.66
2019-01-12T18:54:22.375Z,87.86
2019-01-12T18:56:30.199Z,88.24
2019-01-12T18:58:37.127Z,88.38
2019-01-12T19:00:43.710Z,88.10
2019-01-12T19:02:51.066Z,88.30
2019-01-12T19:04:57.766Z,88.49
2019-01-12T19:07:04.541Z,88.44
2019-01-12T19:09:11.243Z,88.41
2019-01-12T19:11:17.922Z,88.23
2019-01-12T19:13:24.531Z,88.39
2019-01-12T19:15:32.270Z,88.57
2019-01-12T19:17:39.071Z,89.13
2019-01-12T19:19:45.883Z,89.08
2019-01-12T19:21:52.868Z,89.83
2019-01-12T19:23:59.654Z,90.31
2019-01-12T19:26:06.231Z,90.21
2019-01-12T19:28:13.520Z,89.99
2019-01-12T19:30:21.955Z,89.44
2019-01-12T19:32:29.278Z,90.13
2019-01-12T19:34:36.079Z,90.73
2019-01-12T19:36:43.045Z,90.76
2019-01-12T19:38:50.210Z,90.45
2019-01-12T19:40:57.247Z,90.43
2019-01-12T19:43:04.049Z,90.94
2019-01-12T19:45:13.123Z,91.31
2019-01-12T19:47:19.913Z,91.44
2019-01-12T19:49:26.802Z,91.41
2019-01-12T19:51:33.439Z,91.74
2019-01-12T19:53:40.738Z,91.83
2019-01-12T19:55:47.545Z,91.69
2019-01-12T19:57:54.235Z,91.28
2019-01-12T20:00:05.652Z,91.12
2019-01-12T20:02:13.056Z,91.37
2019-01-12T20:04:19.831Z,91.62
2019-01-12T20:06:26.643Z,91.75
2019-01-12T20:08:33.214Z,91.63
2019-01-12T20:10:40.144Z,91.22
2019-01-12T20:12:47.286Z,90.74
2019-01-12T20:14:53.422Z,90.22
2019-01-12T20:17:00.139Z,90.69
2019-01-12T20:19:07.511Z,90.42
2019-01-12T20:21:14.089Z,90.12
2019-01-12T20:23:21.124Z,89.94
2019-01-12T20:25:33.136Z,90.18
2019-01-12T20:27:40.177Z,90.20
2019-01-12T20:29:46.743Z,89.91
2019-01-12T20:32:07.357Z,90.02
2019-01-12T20:34:49.218Z,89.79
2019-01-12T20:37:29.079Z,89.72
2019-01-12T20:40:17.460Z,89.83
2019-01-12T20:43:04.832Z,89.51
2019-01-12T20:46:03.894Z,89.70
2019-01-12T20:48:18.348Z,90.52
2019-01-12T20:51:03.089Z,90.53
2019-01-12T20:53:33.292Z,90.44
2019-01-12T20:55:54.460Z,89.54
2019-01-12T20:58:38.767Z,89.48
2019-01-12T21:01:18.505Z,89.22
2019-01-12T21:04:17.191Z,88.61
2019-01-12T21:07:17.084Z,88.22
2019-01-12T21:10:13.845Z,87.84
2019-01-12T21:12:46.401Z,87.37
2019-01-12T21:15:09.823Z,86.99
2019-01-12T21:17:18.250Z,87.03
2019-01-12T21:19:25.515Z,86.84
2019-01-12T21:21:32.481Z,87.06
2019-01-12T21:23:39.533Z,87.12
2019-01-12T21:25:46.249Z,86.80
2019-01-12T21:27:52.833Z,86.81
2019-01-12T21:29:59.785Z,87.08
2019-01-12T21:32:07.386Z,86.96
2019-01-12T21:34:13.836Z,86.99
2019-01-12T21:36:20.741Z,86.85
2019-01-12T21:38:27.888Z,86.84
2019-01-12T21:40:34.529Z,86.73
2019-01-12T21:42:40.952Z,87.13
2019-01-12T21:44:47.308Z,86.67
2019-01-12T21:46:53.622Z,87.16
2019-01-12T21:49:00.314Z,87.36
2019-01-12T21:51:07.497Z,87.47
2019-01-12T21:53:14.147Z,87.80
2019-01-12T21:55:21.216Z,88.04
2019-01-12T21:57:27.664Z,87.71
2019-01-12T21:59:34.511Z,87.69
2019-01-12T22:01:41.235Z,88.00
2019-01-12T22:03:48.014Z,89.67
2019-01-12T22:05:55.054Z,89.80
2019-01-12T22:08:01.854Z,89.70
2019-01-12T22:10:10.999Z,89.60
2019-01-12T22:12:17.967Z,90.10
2019-01-12T22:14:24.569Z,89.79
2019-01-12T22:16:31.769Z,89.30
2019-01-12T22:18:38.339Z,89.06
2019-01-12T22:20:44.997Z,89.58
2019-01-12T22:22:52.075Z,89.42
2019-01-12T22:24:58.720Z,89.36
2019-01-12T22:27:05.692Z,89.49
2019-01-12T22:29:12.451Z,89.39
2019-01-12T22:31:19.330Z,89.54
2019-01-12T22:33:26.262Z,88.69
2019-01-12T22:35:33.024Z,87.76
2019-01-12T22:37:39.431Z,87.64
2019-01-12T22:39:46.198Z,87.54
2019-01-12T22:41:52.897Z,87.72
2019-01-12T22:43:59.415Z,87.73
2019-01-12T22:46:06.533Z,88.01
2019-01-12T22:48:13.041Z,88.05
2019-01-12T22:50:20.271Z,88.00
2019-01-12T22:52:26.527Z,89.44
2019-01-12T22:54:33.275Z,89.86
2019-01-12T22:56:40.185Z,89.41
2019-01-12T22:58:46.806Z,89.57
2019-01-12T23:01:10.778Z,89.93
2019-01-12T23:03:17.959Z,89.73
2019-01-12T23:05:25.496Z,90.54
2019-01-12T23:07:32.775Z,90.98
2019-01-12T23:09:40.089Z,90.72
2019-01-12T23:11:46.479Z,90.63
2019-01-12T23:13:53.606Z,91.07
2019-01-12T23:16:00.184Z,90.81
2019-01-12T23:18:07.306Z,90.73
2019-01-12T23:20:14.872Z,90.34
2019-01-12T23:22:21.804Z,90.38
2019-01-12T23:24:28.338Z,90.27
2019-01-12T23:26:35.487Z,90.74
2019-01-12T23:28:42.061Z,90.85
2019-01-12T23:30:49.127Z,91.49
2019-01-12T23:32:55.724Z,91.72
2019-01-12T23:35:02.759Z,91.43
2019-01-12T23:37:09.396Z,91.16
2019-01-12T23:39:15.954Z,90.48
2019-01-12T23:41:22.821Z,90.65
2019-01-12T23:43:29.454Z,90.60
2019-01-12T23:45:36.148Z,91.04
2019-01-12T23:47:42.754Z,90.79
2019-01-12T23:49:49.499Z,90.68
2019-01-12T23:51:55.904Z,91.31
2019-01-12T23:54:02.401Z,91.09
2019-01-12T23:56:09.303Z,90.73
2019-01-12T23:58:15.658Z,91.01
